Terminal Aerodrome Forecast
Issued by NWS Houston/Galveston, TX

Home | Current Version | Previous Version | Text Only | Print | Product List | Glossary On
Versions: 1 2 3 4 5 6 7 8 9 10 11 12 13 14 15 16 17 18 19 20 21 22 23 24 25 26 27 28 29 30 31 32 33 34 35 36 37 38 39 40 41 42 43 44 45
000
FTUS44 KHGX 301410 AAA
TAFCLL
TAF AMD
KCLL 301410Z 3014/0112 25004KT P6SM SCT007 SCT015
      TEMPO 3014/3015 6SM BR BKN006 OVC020
     FM301900 18010KT P6SM VCTS BKN040CB
     FM302300 17008KT P6SM SCT050 BKN120
     FM010400 18005KT P6SM SKC
     FM011100 VRB04KT P6SM FEW008=

USA.gov is the U.S. government's official web portal to all federal, state and local government web resources and services.